Time;durP1;ratioP1;P1;durP2;ratioP2;P2;SDS_P1;SDS_P2;PMS_P1;PMS_P2;Temp;Humidity;BMP_temperature;BMP_pressure;BME280_temperature;BME280_humidity;BME280_pressure;Samples;Min_cycle;Max_cycle;Signal;HPM_P1;HPM_P2
2022/12/09 00:00:53;;;;;;;40.63;34.92;;;13.00;94.20;;;;;;4591812;19;20040;-29
2022/12/09 00:02:24;;;;;;;43.83;35.63;;;13.00;94.20;;;;;;4591671;19;20469;-30
2022/12/09 00:03:55;;;;;;;40.00;31.90;;;13.10;94.30;;;;;;4591744;19;20021;-30
2022/12/09 00:05:27;;;;;;;38.58;30.00;;;13.10;94.30;;;;;;4592519;19;20041;-29
2022/12/09 00:06:58;;;;;;;39.42;31.65;;;13.00;94.30;;;;;;4593053;19;20046;-30
2022/12/09 00:08:29;;;;;;;29.77;25.02;;;13.00;94.30;;;;;;4592701;19;20018;-28
2022/12/09 00:10:00;;;;;;;32.42;26.10;;;13.00;94.30;;;;;;4592922;19;20010;-32
2022/12/09 00:11:31;;;;;;;33.05;28.73;;;13.00;94.30;;;;;;4592659;19;20017;-28
2022/12/09 00:13:02;;;;;;;35.08;29.85;;;13.00;94.30;;;;;;4592842;19;20019;-29
2022/12/09 00:14:34;;;;;;;36.28;30.23;;;13.10;94.40;;;;;;4592599;19;20033;-29
2022/12/09 00:16:09;;;;;;;36.13;28.33;;;13.00;94.30;;;;;;4591127;19;20018;-29
2022/12/09 00:17:40;;;;;;;33.77;27.07;;;13.10;94.40;;;;;;4592239;19;20019;-28
2022/12/09 00:19:12;;;;;;;30.83;25.05;;;13.10;94.40;;;;;;4592315;19;20077;-31
2022/12/09 00:20:43;;;;;;;30.25;26.88;;;13.10;94.40;;;;;;4589215;19;20019;-30
2022/12/09 00:22:14;;;;;;;34.20;28.10;;;13.00;94.40;;;;;;4590432;19;20038;-29
2022/12/09 00:23:45;;;;;;;32.30;27.02;;;13.10;94.40;;;;;;4592468;19;20086;-31
2022/12/09 00:25:16;;;;;;;33.67;26.67;;;13.00;94.40;;;;;;4592382;19;20074;-29
2022/12/09 00:26:47;;;;;;;34.90;29.20;;;13.00;94.40;;;;;;4592020;19;20015;-29
2022/12/09 00:28:19;;;;;;;37.55;29.95;;;13.00;94.40;;;;;;4591165;19;20082;-30
2022/12/09 00:29:50;;;;;;;34.15;27.95;;;13.10;94.50;;;;;;4592082;19;20006;-31
2022/12/09 00:31:27;;;;;;;43.55;34.75;;;13.00;94.40;;;;;;4590964;19;20482;-29
2022/12/09 00:32:59;;;;;;;43.13;34.97;;;13.00;94.50;;;;;;4592003;19;20015;-30
2022/12/09 00:34:30;;;;;;;54.10;42.78;;;13.00;94.50;;;;;;4591766;19;20018;-28
2022/12/09 00:36:06;;;;;;;35.40;28.50;;;13.00;94.50;;;;;;4592271;19;20011;-29
2022/12/09 00:37:37;;;;;;;45.70;34.70;;;13.00;94.50;;;;;;4590992;19;20054;-29
2022/12/09 00:39:08;;;;;;;45.03;36.53;;;13.00;94.50;;;;;;4591485;19;20010;-30
2022/12/09 00:40:39;;;;;;;48.00;34.22;;;13.00;94.40;;;;;;4591093;19;20035;-27
2022/12/09 00:42:11;;;;;;;46.30;33.45;;;13.00;94.50;;;;;;4590289;19;20015;-27
2022/12/09 00:43:42;;;;;;;40.45;29.58;;;13.00;94.50;;;;;;4591837;19;20375;-29
2022/12/09 00:45:13;;;;;;;40.92;29.70;;;13.00;94.50;;;;;;4591251;19;20039;-29
2022/12/09 00:46:44;;;;;;;39.25;31.42;;;13.00;94.50;;;;;;4592178;19;20002;-28
2022/12/09 00:48:15;;;;;;;42.67;31.45;;;13.00;94.70;;;;;;4591840;19;20495;-29
2022/12/09 00:49:46;;;;;;;44.17;33.00;;;13.00;94.50;;;;;;4591749;19;20015;-28
2022/12/09 00:51:20;;;;;;;45.17;33.85;;;13.00;94.50;;;;;;4591636;19;20014;-29
2022/12/09 00:52:51;;;;;;;43.47;32.70;;;13.00;94.50;;;;;;4591950;19;20014;-28
2022/12/09 00:54:22;;;;;;;30.83;24.35;;;13.00;94.50;;;;;;4591538;19;20015;-27
2022/12/09 00:55:54;;;;;;;29.02;22.17;;;13.00;94.50;;;;;;4590381;19;20022;-30
2022/12/09 00:57:25;;;;;;;23.70;19.20;;;13.00;94.50;;;;;;4590343;19;20025;-28
2022/12/09 00:58:56;;;;;;;25.45;21.52;;;13.00;94.50;;;;;;4592073;19;20015;-27
2022/12/09 01:00:28;;;;;;;27.40;22.53;;;13.00;94.50;;;;;;4591369;19;20019;-30
2022/12/09 01:01:59;;;;;;;26.65;21.80;;;13.00;94.50;;;;;;4590538;19;20472;-31
2022/12/09 01:03:30;;;;;;;23.92;20.55;;;13.00;94.60;;;;;;4591872;19;20017;-29
2022/12/09 01:05:02;;;;;;;24.83;20.08;;;13.00;94.60;;;;;;4591609;19;20070;-28
2022/12/09 01:06:33;;;;;;;23.70;19.60;;;13.00;94.60;;;;;;4591477;19;20016;-30
2022/12/09 01:08:04;;;;;;;24.02;20.15;;;13.00;94.60;;;;;;4591478;19;20011;-29
2022/12/09 01:09:36;;;;;;;22.08;19.70;;;13.00;94.60;;;;;;4591775;19;20095;-29
2022/12/09 01:11:11;;;;;;;23.58;20.15;;;13.00;94.60;;;;;;4590173;19;20472;-29
2022/12/09 01:12:42;;;;;;;23.50;19.27;;;13.00;94.80;;;;;;4590221;19;20010;-30
2022/12/09 01:14:13;;;;;;;24.30;18.90;;;13.00;94.60;;;;;;4590331;19;20034;-30
2022/12/09 01:15:44;;;;;;;24.58;19.98;;;13.00;94.60;;;;;;4591387;19;20465;-28
2022/12/09 01:17:15;;;;;;;25.90;21.30;;;13.00;94.60;;;;;;4591264;19;20030;-32
2022/12/09 01:18:47;;;;;;;27.30;22.10;;;13.00;94.60;;;;;;4590186;19;20025;-31
2022/12/09 01:20:18;;;;;;;26.20;20.98;;;13.00;94.60;;;;;;4591014;19;20457;-27
2022/12/09 01:21:53;;;;;;;22.35;19.42;;;13.00;94.60;;;;;;4589203;19;20018;-28
2022/12/09 01:23:24;;;;;;;24.60;21.07;;;13.00;94.60;;;;;;4590890;19;20025;-28
2022/12/09 01:24:56;;;;;;;25.27;20.25;;;13.00;94.60;;;;;;4591135;19;20013;-28
2022/12/09 01:26:27;;;;;;;27.60;22.13;;;13.00;94.60;;;;;;4591433;19;20039;-29
2022/12/09 01:27:59;;;;;;;25.85;20.70;;;13.00;94.50;;;;;;4590547;19;20135;-28
2022/12/09 01:29:30;;;;;;;;;;;13.00;94.60;;;;;;4591763;19;20010;-28
2022/12/09 01:31:09;;;;;;;25.23;20.67;;;13.00;94.60;;;;;;4590374;19;19926;-29
2022/12/09 01:32:40;;;;;;;26.20;21.33;;;13.00;94.60;;;;;;4591340;19;20074;-28
2022/12/09 01:34:11;;;;;;;27.58;22.08;;;13.00;94.60;;;;;;4590585;19;20471;-29
2022/12/09 01:35:42;;;;;;;26.20;20.65;;;13.00;94.60;;;;;;4591009;19;20022;-29
2022/12/09 01:37:14;;;;;;;26.42;20.85;;;13.00;94.60;;;;;;4591036;19;20078;-29
2022/12/09 01:38:45;;;;;;;28.35;21.63;;;13.00;94.60;;;;;;4591041;19;20010;-30
2022/12/09 01:40:16;;;;;;;27.05;22.83;;;13.00;94.60;;;;;;4590376;19;20092;-29
2022/12/09 01:41:50;;;;;;;;;;;13.00;94.60;;;;;;4590568;19;20018;-29
2022/12/09 01:43:21;;;;;;;27.90;21.63;;;13.00;94.60;;;;;;4590430;19;20267;-28
2022/12/09 01:45:20;;;;;;;30.83;22.75;;;13.00;94.60;;;;;;4588798;19;20451;-31
2022/12/09 01:46:56;;;;;;;24.33;21.37;;;13.00;94.60;;;;;;4590973;19;20014;-30
2022/12/09 01:48:30;;;;;;;27.17;21.60;;;13.00;94.60;;;;;;4589482;19;20425;-28
2022/12/09 01:50:01;;;;;;;28.60;22.00;;;13.00;94.60;;;;;;4589569;19;20006;-29
2022/12/09 01:51:34;;;;;;;27.20;21.60;;;13.00;94.60;;;;;;4590054;19;20432;-31
2022/12/09 01:53:05;;;;;;;27.33;21.40;;;13.00;94.60;;;;;;4589385;19;20014;-29
2022/12/09 01:54:36;;;;;;;25.90;21.98;;;13.00;94.70;;;;;;4590212;19;20429;-29
2022/12/09 01:56:20;;;;;;;28.40;22.45;;;13.00;94.70;;;;;;4589290;19;20374;-30
2022/12/09 01:57:51;;;;;;;33.10;24.80;;;13.00;94.70;;;;;;4589188;19;20398;-31
2022/12/09 01:59:22;;;;;;;29.95;23.80;;;13.00;94.60;;;;;;4589312;19;20028;-29
2022/12/09 02:00:54;;;;;;;35.10;26.30;;;13.00;94.60;;;;;;4589882;19;20373;-31
2022/12/09 02:02:27;;;;;;;32.08;26.10;;;13.00;94.60;;;;;;4589268;19;20010;-30
2022/12/09 02:03:58;;;;;;;31.90;25.77;;;13.00;94.60;;;;;;4589105;19;20031;-29
2022/12/09 02:05:29;;;;;;;29.02;24.20;;;13.00;94.60;;;;;;4589857;19;20048;-28
2022/12/09 02:07:01;;;;;;;29.85;23.83;;;13.00;94.50;;;;;;4590125;19;20011;-29
2022/12/09 02:08:32;;;;;;;26.60;22.53;;;13.00;94.50;;;;;;4589273;19;20499;-28
2022/12/09 02:10:07;;;;;;;30.52;23.77;;;13.00;94.50;;;;;;4590110;19;20546;-29
2022/12/09 02:12:03;;;;;;;31.47;25.30;;;13.00;94.50;;;;;;4588790;19;20354;-29
2022/12/09 02:13:51;;;;;;;31.20;24.00;;;13.00;94.50;;;;;;4589863;19;20459;-29
2022/12/09 02:15:32;;;;;;;29.97;24.40;;;13.00;94.40;;;;;;4588862;19;21285;-28
2022/12/09 02:17:24;;;;;;;28.40;23.40;;;13.00;94.40;;;;;;4589073;19;20463;-28
2022/12/09 02:18:58;;;;;;;28.60;23.02;;;13.00;94.30;;;;;;4588636;19;20421;-29
2022/12/09 02:20:53;;;;;;;30.37;24.03;;;13.00;94.40;;;;;;4588897;19;20011;-29
2022/12/09 02:22:28;;;;;;;28.97;23.03;;;13.00;94.30;;;;;;4586768;19;20457;-29
2022/12/09 02:24:07;;;;;;;30.30;24.03;;;13.00;94.20;;;;;;4587735;19;21087;-30
2022/12/09 02:25:47;;;;;;;28.10;23.67;;;13.00;94.20;;;;;;4587651;19;20440;-29
2022/12/09 02:27:25;;;;;;;29.00;23.60;;;13.00;94.20;;;;;;4587745;19;20449;-30
2022/12/09 02:29:01;;;;;;;31.53;26.20;;;13.00;94.30;;;;;;4587985;19;20481;-29
2022/12/09 02:30:53;;;;;;;31.20;24.63;;;12.90;94.30;;;;;;4588041;19;19999;-29
2022/12/09 02:32:48;;;;;;;33.85;26.85;;;13.00;94.40;;;;;;4587210;19;20014;-31
2022/12/09 02:34:19;;;;;;;32.83;26.63;;;13.00;94.50;;;;;;4587508;19;20018;-33
2022/12/09 02:36:04;;;;;;;32.80;25.37;;;13.00;94.50;;;;;;4587390;19;20078;-29
2022/12/09 02:38:10;;;;;;;30.57;24.73;;;13.00;94.50;;;;;;4587534;19;20452;-29
2022/12/09 02:39:44;;;;;;;32.03;25.23;;;13.00;94.50;;;;;;4587162;19;20448;-28
2022/12/09 02:41:18;;;;;;;34.43;27.20;;;13.00;94.50;;;;;;4587219;19;20474;-28
2022/12/09 02:42:49;;;;;;;32.27;25.83;;;13.00;94.50;;;;;;4585535;19;20059;-30
2022/12/09 02:44:20;;;;;;;33.20;25.98;;;13.00;94.50;;;;;;4586525;19;20081;-28
2022/12/09 02:45:51;;;;;;;32.30;25.88;;;13.00;94.50;;;;;;4587545;19;20548;-29
2022/12/09 02:47:24;;;;;;;32.75;25.38;;;13.00;94.50;;;;;;4587628;19;20013;-29
2022/12/09 02:48:56;;;;;;;31.23;24.80;;;13.00;94.60;;;;;;4587090;19;20013;-31
2022/12/09 02:50:31;;;;;;;30.50;25.07;;;13.00;94.60;;;;;;4587077;19;20015;-28
2022/12/09 02:52:02;;;;;;;32.60;25.40;;;13.00;94.60;;;;;;4587231;19;20111;-29
2022/12/09 02:53:34;;;;;;;30.70;25.35;;;13.00;94.60;;;;;;4587662;19;20436;-29
2022/12/09 02:55:06;;;;;;;33.72;26.15;;;13.00;94.60;;;;;;4587139;19;20014;-27
2022/12/09 02:56:39;;;;;;;30.77;25.20;;;13.00;94.60;;;;;;4586757;19;20105;-28
2022/12/09 02:58:10;;;;;;;35.00;27.80;;;13.00;94.50;;;;;;4587076;19;20464;-30
2022/12/09 02:59:41;;;;;;;34.70;28.55;;;13.00;94.50;;;;;;4587126;19;20536;-30
2022/12/09 03:01:42;;;;;;;35.63;28.75;;;13.00;94.50;;;;;;4586743;19;20014;-31
2022/12/09 03:03:14;;;;;;;33.00;25.90;;;13.00;94.50;;;;;;4586814;19;20081;-29
2022/12/09 03:04:48;;;;;;;35.03;27.07;;;13.00;94.50;;;;;;4587148;19;20094;-30
2022/12/09 03:06:19;;;;;;;31.63;26.13;;;13.00;94.40;;;;;;4587100;19;20108;-30
2022/12/09 03:08:19;;;;;;;31.20;26.17;;;13.00;94.50;;;;;;4586721;19;21096;-29
2022/12/09 03:09:56;;;;;;;33.27;27.17;;;13.00;94.40;;;;;;4586619;19;20100;-29
2022/12/09 03:11:27;;;;;;;30.60;26.33;;;13.00;94.50;;;;;;4586800;19;20010;-29
2022/12/09 03:13:02;;;;;;;31.92;26.08;;;12.90;94.50;;;;;;4589089;19;20852;-32
2022/12/09 03:14:37;;;;;;;35.03;28.10;;;13.00;94.60;;;;;;4587219;19;20094;-29
2022/12/09 03:16:19;;;;;;;40.40;32.70;;;13.00;94.60;;;;;;4587337;19;20053;-28
2022/12/09 03:17:50;;;;;;;42.80;32.87;;;13.00;94.60;;;;;;4587830;19;20018;-28
2022/12/09 03:19:35;;;;;;;37.35;30.73;;;13.00;94.60;;;;;;4588282;19;20474;-30
2022/12/09 03:21:06;;;;;;;35.83;29.43;;;13.00;94.60;;;;;;4587818;19;20002;-29
2022/12/09 03:22:37;;;;;;;34.45;29.00;;;13.00;94.60;;;;;;4588065;19;20014;-29
2022/12/09 03:24:09;;;;;;;36.80;27.53;;;13.00;94.60;;;;;;4587635;19;20010;-28
2022/12/09 03:25:45;;;;;;;45.40;30.73;;;13.00;94.60;;;;;;4587540;19;20064;-29
2022/12/09 03:27:20;;;;;;;42.57;28.43;;;13.00;94.60;;;;;;4588770;19;20035;-29
2022/12/09 03:28:51;;;;;;;35.13;27.47;;;13.00;94.60;;;;;;4588102;19;20103;-30
2022/12/09 03:30:22;;;;;;;39.10;30.40;;;13.00;94.60;;;;;;4589087;19;20017;-28
2022/12/09 03:31:54;;;;;;;34.58;29.08;;;13.00;94.60;;;;;;4587445;19;20023;-30
2022/12/09 03:33:26;;;;;;;36.33;29.23;;;13.00;94.60;;;;;;4588276;19;20530;-28
2022/12/09 03:35:03;;;;;;;35.28;28.77;;;13.00;94.60;;;;;;4587590;19;20035;-30
2022/12/09 03:36:38;;;;;;;31.27;26.20;;;13.00;94.60;;;;;;4587487;19;20578;-32
2022/12/09 03:38:11;;;;;;;30.73;26.17;;;13.00;94.60;;;;;;4587282;19;20445;-29
2022/12/09 03:39:42;;;;;;;31.93;25.93;;;13.00;94.70;;;;;;4587414;19;20035;-29
2022/12/09 03:41:27;;;;;;;34.35;26.48;;;13.00;94.60;;;;;;4587569;19;20017;-29
2022/12/09 03:43:04;;;;;;;32.67;26.97;;;12.90;94.60;;;;;;4587282;19;20339;-29
2022/12/09 03:44:43;;;;;;;29.50;25.43;;;13.00;94.70;;;;;;4586520;19;20030;-29
2022/12/09 03:46:14;;;;;;;34.73;26.73;;;13.00;94.80;;;;;;4588308;19;20405;-29
2022/12/09 03:47:47;;;;;;;29.95;24.55;;;13.00;94.80;;;;;;4588152;19;20074;-33
2022/12/09 03:49:19;;;;;;;31.80;27.00;;;13.00;94.90;;;;;;4588284;19;20035;-32
2022/12/09 03:50:54;;;;;;;34.75;26.35;;;13.00;94.80;;;;;;4588390;19;20026;-29
2022/12/09 03:52:32;;;;;;;34.27;26.60;;;13.10;94.70;;;;;;4588547;19;20021;-31
2022/12/09 03:54:08;;;;;;;30.73;25.20;;;13.00;94.70;;;;;;4588259;19;20064;-33
2022/12/09 03:55:50;;;;;;;32.93;27.83;;;13.10;94.70;;;;;;4593457;19;20387;-28
2022/12/09 03:57:22;;;;;;;35.50;28.80;;;13.10;94.70;;;;;;4590169;19;20011;-34
2022/12/09 03:58:53;;;;;;;35.45;28.15;;;13.10;94.70;;;;;;4590533;19;20021;-31
2022/12/09 04:00:24;;;;;;;;;;;13.10;94.70;;;;;;4593102;19;20021;-29
2022/12/09 04:01:56;;;;;;;37.90;27.10;;;13.10;94.60;;;;;;4591758;19;19933;-31
2022/12/09 04:03:27;;;;;;;38.92;27.67;;;13.10;94.60;;;;;;4591548;19;20477;-29
2022/12/09 04:04:58;;;;;;;36.70;28.58;;;13.10;94.60;;;;;;4592188;19;20018;-30
2022/12/09 04:06:30;;;;;;;42.70;33.70;;;13.10;94.60;;;;;;4593084;19;20080;-34
2022/12/09 04:08:01;;;;;;;42.75;31.92;;;13.10;94.60;;;;;;4592751;19;20014;-29
2022/12/09 04:09:32;;;;;;;46.60;35.38;;;13.10;94.60;;;;;;4592657;19;20466;-29
2022/12/09 04:11:04;;;;;;;55.25;43.92;;;13.10;94.60;;;;;;4592974;19;20002;-29
2022/12/09 04:12:35;;;;;;;50.22;38.67;;;13.10;94.70;;;;;;4591354;19;20359;-29
2022/12/09 04:14:06;;;;;;;49.47;36.30;;;13.10;94.70;;;;;;4592057;19;20465;-30
2022/12/09 04:15:37;;;;;;;44.40;34.83;;;13.10;94.70;;;;;;4592745;19;20010;-28
2022/12/09 04:17:09;;;;;;;40.80;32.00;;;13.10;94.70;;;;;;4592625;19;20017;-29
2022/12/09 04:18:40;;;;;;;35.60;28.20;;;13.10;94.70;;;;;;4591327;19;20026;-28
2022/12/09 04:20:12;;;;;;;35.13;27.13;;;13.10;94.70;;;;;;4589684;19;20547;-28
2022/12/09 04:31:16;;;;;;;37.53;27.63;;;13.10;94.80;;;;;;4591415;19;20578;-29
2022/12/09 04:32:48;;;;;;;40.30;29.87;;;13.10;94.80;;;;;;4591058;19;20425;-30
2022/12/09 04:34:19;;;;;;;37.20;29.67;;;13.10;94.90;;;;;;4591623;19;20560;-37
2022/12/09 04:35:50;;;;;;;41.67;30.45;;;13.10;94.90;;;;;;4594085;19;20017;-29
2022/12/09 04:37:41;;;;;;;41.67;31.47;;;13.00;94.90;;;;;;4592022;19;20018;-32
2022/12/09 04:39:31;;;;;;;42.33;30.07;;;13.10;94.90;;;;;;4592035;19;20083;-29
2022/12/09 04:41:02;;;;;;;41.10;28.47;;;13.00;94.80;;;;;;4591492;19;20018;-36
2022/12/09 04:42:33;;;;;;;38.55;28.60;;;13.10;94.90;;;;;;4590215;19;20007;-39
2022/12/09 04:44:04;;;;;;;43.72;30.55;;;13.00;94.90;;;;;;4591856;19;20370;-28
2022/12/09 04:45:36;;;;;;;42.00;33.55;;;13.00;94.90;;;;;;4590426;19;20042;-33
2022/12/09 04:47:07;;;;;;;46.70;36.47;;;13.10;95.00;;;;;;4591867;19;20011;-29
2022/12/09 04:48:39;;;;;;;51.00;36.10;;;13.10;94.90;;;;;;4591529;19;20011;-32
2022/12/09 04:50:11;;;;;;;46.00;33.50;;;13.20;94.80;;;;;;4592613;19;20518;-36
2022/12/09 04:51:42;;;;;;;44.47;32.58;;;13.30;94.80;;;;;;4593717;19;20477;-29
2022/12/09 04:53:15;;;;;;;41.47;32.17;;;13.30;94.70;;;;;;4591654;19;20047;-30
2022/12/09 04:54:48;;;;;;;46.60;34.97;;;13.30;94.60;;;;;;4591811;19;20481;-35
2022/12/09 04:56:20;;;;;;;41.03;32.67;;;13.40;94.60;;;;;;4590297;19;20042;-30
2022/12/09 04:57:52;;;;;;;46.33;33.30;;;13.40;94.60;;;;;;4590458;19;20042;-31
2022/12/09 04:59:23;;;;;;;44.67;30.98;;;13.40;94.50;;;;;;4591295;19;20013;-34
2022/12/09 05:00:56;;;;;;;43.03;31.37;;;13.50;94.50;;;;;;4593068;19;20415;-31
2022/12/09 05:02:30;;;;;;;40.70;29.90;;;13.50;94.50;;;;;;4589738;19;20011;-37
2022/12/09 05:04:02;;;;;;;39.73;30.03;;;13.50;94.50;;;;;;4591514;19;20011;-29
2022/12/09 05:05:38;;;;;;;41.00;31.53;;;13.50;94.50;;;;;;4591782;19;20018;-29
2022/12/09 05:07:12;;;;;;;40.37;30.00;;;13.50;94.50;;;;;;4591996;19;19998;-31
2022/12/09 05:08:43;;;;;;;41.45;31.35;;;13.50;94.50;;;;;;4591645;19;20011;-36
2022/12/09 05:10:15;;;;;;;35.70;26.77;;;13.50;94.50;;;;;;4590627;19;20026;-31
2022/12/09 05:11:47;;;;;;;37.77;28.67;;;13.70;94.40;;;;;;4591565;19;20345;-31
2022/12/09 05:13:20;;;;;;;38.07;30.23;;;13.70;94.30;;;;;;4591929;19;20014;-34
2022/12/09 05:14:53;;;;;;;42.80;32.10;;;13.70;94.30;;;;;;4591797;19;20025;-30
2022/12/09 05:16:24;;;;;;;42.22;31.60;;;13.70;94.30;;;;;;4591924;19;20066;-30
2022/12/09 05:17:56;;;;;;;38.00;28.00;;;13.60;94.40;;;;;;4591916;19;20019;-34
2022/12/09 05:19:27;;;;;;;45.70;32.27;;;13.70;94.40;;;;;;4592964;19;20465;-36
2022/12/09 05:31:40;;;;;;;52.67;37.77;;;13.40;94.50;;;;;;4590937;19;20022;-30
2022/12/09 05:33:27;;;;;;;57.37;39.53;;;13.40;94.50;;;;;;4591496;19;20018;-29
2022/12/09 05:34:59;;;;;;;51.57;36.57;;;13.40;94.50;;;;;;4590490;19;20417;-31
2022/12/09 05:36:31;;;;;;;49.03;35.53;;;13.40;94.50;;;;;;4590588;19;20011;-30
2022/12/09 05:38:03;;;;;;;52.23;36.73;;;13.40;94.60;;;;;;4591707;19;20473;-35
2022/12/09 05:39:36;;;;;;;50.57;36.07;;;13.40;94.60;;;;;;4591752;19;20014;-33
2022/12/09 05:41:11;;;;;;;51.85;36.10;;;13.40;94.70;;;;;;4591745;19;20018;-29
2022/12/09 05:42:45;;;;;;;49.30;34.63;;;13.30;94.70;;;;;;4591297;19;20092;-29
2022/12/09 05:44:16;;;;;;;53.88;39.05;;;13.40;94.70;;;;;;4591238;19;20484;-37
2022/12/09 05:45:48;;;;;;;54.60;40.25;;;13.30;94.70;;;;;;4593391;19;20528;-31
2022/12/09 05:47:20;;;;;;;53.80;39.63;;;13.30;94.70;;;;;;4592782;19;20006;-31
2022/12/09 05:48:53;;;;;;;53.43;38.10;;;13.30;94.70;;;;;;4590833;19;20019;-31
2022/12/09 05:50:28;;;;;;;52.50;36.43;;;13.30;94.70;;;;;;4591323;19;20014;-30
2022/12/09 05:52:00;;;;;;;51.77;35.43;;;13.30;94.70;;;;;;4593844;19;20464;-28
2022/12/09 05:53:31;;;;;;;54.08;38.53;;;13.30;94.70;;;;;;4592271;19;20026;-33
2022/12/09 05:55:08;;;;;;;54.70;39.58;;;13.30;94.70;;;;;;4593143;19;20346;-33
2022/12/09 05:56:39;;;;;;;49.03;36.13;;;13.30;95.00;;;;;;4591775;19;20392;-32
2022/12/09 05:58:14;;;;;;;48.05;35.53;;;13.30;94.80;;;;;;4593378;19;20445;-34
2022/12/09 05:59:51;;;;;;;49.47;36.20;;;13.30;94.80;;;;;;4590684;19;20685;-34
2022/12/09 06:01:26;;;;;;;51.40;36.80;;;13.30;94.80;;;;;;4592073;19;20118;-30
2022/12/09 06:02:57;;;;;;;53.93;39.00;;;13.30;94.80;;;;;;4593271;19;20117;-30
2022/12/09 06:04:31;;;;;;;50.80;37.77;;;13.30;94.80;;;;;;4591950;19;20015;-29
2022/12/09 06:06:07;;;;;;;48.45;35.55;;;13.30;94.80;;;;;;4589918;19;20035;-30
2022/12/09 06:07:38;;;;;;;52.10;36.20;;;13.30;94.80;;;;;;4591325;19;20022;-28
2022/12/09 06:09:11;;;;;;;49.55;34.95;;;13.20;94.80;;;;;;4586855;19;20092;-28
2022/12/09 06:10:42;;;;;;;55.43;39.40;;;13.20;94.70;;;;;;4592229;19;20007;-30
2022/12/09 06:12:13;;;;;;;58.75;39.03;;;13.30;94.80;;;;;;4591242;19;20468;-29
2022/12/09 06:13:45;;;;;;;56.97;39.43;;;13.20;94.70;;;;;;4591368;19;20010;-31
2022/12/09 06:15:17;;;;;;;54.67;38.65;;;13.20;94.80;;;;;;4592978;19;20010;-29
2022/12/09 06:16:48;;;;;;;56.53;38.93;;;13.30;94.80;;;;;;4591043;19;20428;-29
2022/12/09 06:18:20;;;;;;;;;;;13.30;94.80;;;;;;4590138;19;20025;-30
2022/12/09 06:19:51;;;;;;;52.07;37.03;;;13.20;94.80;;;;;;4590011;19;19911;-31
2022/12/09 06:21:22;;;;;;;47.85;34.30;;;13.20;94.80;;;;;;4592218;19;20025;-34
2022/12/09 06:22:54;;;;;;;45.47;32.72;;;13.20;94.80;;;;;;4590508;19;20014;-27
2022/12/09 06:24:25;;;;;;;46.70;33.35;;;13.20;94.80;;;;;;4590715;19;20453;-28
2022/12/09 06:25:56;;;;;;;47.13;34.22;;;13.20;94.80;;;;;;4590518;19;20505;-29
2022/12/09 06:27:28;;;;;;;49.15;35.15;;;13.20;94.80;;;;;;4590260;19;20011;-29
2022/12/09 06:28:59;;;;;;;44.75;33.72;;;13.30;94.70;;;;;;4590601;19;20011;-29
2022/12/09 06:30:30;;;;;;;41.40;31.38;;;13.30;94.70;;;;;;4591240;19;20039;-28
2022/12/09 06:32:03;;;;;;;41.60;30.52;;;13.40;94.60;;;;;;4588811;19;20035;-27
2022/12/09 06:33:34;;;;;;;39.40;29.87;;;13.50;94.50;;;;;;4589734;19;20014;-28
2022/12/09 06:35:06;;;;;;;39.08;28.95;;;13.50;94.50;;;;;;4589124;19;20421;-29
2022/12/09 06:36:37;;;;;;;41.13;28.88;;;13.50;94.40;;;;;;4590418;19;20014;-29
2022/12/09 06:38:08;;;;;;;37.45;27.85;;;13.60;94.40;;;;;;4590179;19;20021;-30
2022/12/09 06:39:40;;;;;;;38.92;30.05;;;13.60;94.40;;;;;;4590524;19;20022;-36
2022/12/09 06:41:13;;;;;;;41.87;30.30;;;13.60;94.30;;;;;;4590646;19;20066;-31
2022/12/09 06:42:44;;;;;;;41.70;31.13;;;13.60;94.30;;;;;;4590974;19;20015;-34
2022/12/09 06:44:16;;;;;;;42.13;30.48;;;13.60;94.40;;;;;;4589568;19;20014;-28
2022/12/09 06:45:47;;;;;;;42.50;30.37;;;13.50;94.40;;;;;;4590315;19;20006;-31
2022/12/09 06:47:18;;;;;;;41.97;30.65;;;13.50;94.40;;;;;;4588861;19;20476;-29
2022/12/09 06:48:50;;;;;;;38.80;28.42;;;13.50;94.40;;;;;;4588373;19;20015;-31
2022/12/09 06:50:22;;;;;;;42.80;31.73;;;13.50;94.40;;;;;;4589725;19;20052;-31
2022/12/09 06:51:53;;;;;;;50.95;36.78;;;13.50;94.50;;;;;;4590550;19;20022;-31
2022/12/09 06:53:24;;;;;;;49.70;38.72;;;13.40;94.50;;;;;;4590597;19;20011;-30
2022/12/09 06:54:56;;;;;;;53.97;40.65;;;13.40;94.50;;;;;;4589855;19;20495;-34
2022/12/09 06:56:27;;;;;;;49.33;37.78;;;13.40;94.60;;;;;;4589439;19;20010;-31
2022/12/09 06:57:58;;;;;;;52.78;38.25;;;13.40;94.60;;;;;;4589948;19;20397;-34
2022/12/09 06:59:30;;;;;;;49.40;38.38;;;13.40;94.50;;;;;;4589330;19;20027;-28
2022/12/09 07:01:12;;;;;;;54.45;40.28;;;13.40;94.60;;;;;;4589265;19;20010;-29
2022/12/09 07:02:43;;;;;;;;;;;13.30;94.60;;;;;;4588183;19;20019;-29
2022/12/09 07:04:14;;;;;;;49.90;37.63;;;13.30;94.60;;;;;;4589199;19;19986;-37
2022/12/09 07:05:45;;;;;;;50.25;38.40;;;13.30;94.60;;;;;;4590195;19;20373;-31
2022/12/09 07:07:16;;;;;;;55.58;42.00;;;13.30;94.60;;;;;;4589463;19;20037;-31
2022/12/09 07:08:48;;;;;;;52.67;38.67;;;13.30;94.60;;;;;;4588871;19;20021;-36
2022/12/09 07:10:19;;;;;;;57.10;39.10;;;13.30;94.60;;;;;;4592631;19;20032;-32
2022/12/09 07:11:51;;;;;;;53.13;37.10;;;13.30;94.60;;;;;;4590468;19;20018;-29
2022/12/09 07:13:22;;;;;;;43.97;33.95;;;13.30;94.70;;;;;;4589523;19;20031;-33
2022/12/09 07:14:54;;;;;;;45.20;33.72;;;13.30;94.70;;;;;;4589226;19;20022;-29
2022/12/09 07:16:26;;;;;;;43.13;32.63;;;13.30;94.60;;;;;;4590228;19;19999;-32
2022/12/09 07:17:57;;;;;;;43.83;32.38;;;13.30;94.60;;;;;;4587902;19;20014;-29
2022/12/09 07:19:29;;;;;;;45.40;33.40;;;13.30;94.60;;;;;;4587766;19;20010;-28
2022/12/09 07:21:10;;;;;;;43.45;32.45;;;13.30;94.60;;;;;;4590654;19;20346;-34
2022/12/09 07:22:42;;;;;;;44.93;32.63;;;13.30;94.60;;;;;;4589415;19;20010;-29
2022/12/09 07:24:13;;;;;;;48.35;34.17;;;13.30;94.60;;;;;;4590156;19;20020;-30
2022/12/09 07:25:53;;;;;;;45.30;32.63;;;13.40;94.60;;;;;;4587241;19;20014;-31
2022/12/09 07:27:24;;;;;;;39.23;28.60;;;13.30;94.60;;;;;;4587296;19;20123;-32
2022/12/09 07:29:00;;;;;;;37.17;27.13;;;13.40;94.60;;;;;;4587992;19;20011;-37
2022/12/09 07:30:31;;;;;;;37.33;28.80;;;13.30;94.60;;;;;;4591656;19;20082;-31
2022/12/09 07:32:02;;;;;;;37.00;27.58;;;13.40;94.60;;;;;;4590305;19;20022;-29
2022/12/09 07:33:34;;;;;;;36.57;27.50;;;13.40;94.60;;;;;;4592045;19;20007;-29
2022/12/09 07:35:08;;;;;;;37.10;27.63;;;13.30;94.60;;;;;;4591923;19;20042;-31
2022/12/09 07:36:40;;;;;;;36.97;27.60;;;13.40;94.70;;;;;;4591611;19;20489;-28
2022/12/09 07:38:13;;;;;;;36.07;28.53;;;13.40;94.70;;;;;;4591431;19;20537;-29
2022/12/09 07:39:45;;;;;;;36.03;28.30;;;13.30;94.60;;;;;;4592129;19;20023;-29
2022/12/09 07:41:16;;;;;;;36.50;27.50;;;13.40;94.70;;;;;;4592275;19;20014;-29
2022/12/09 07:42:48;;;;;;;35.97;28.38;;;13.30;94.70;;;;;;4591693;19;20011;-29
2022/12/09 07:44:19;;;;;;;38.95;28.90;;;13.40;94.70;;;;;;4591334;19;20485;-31
2022/12/09 07:45:54;;;;;;;33.50;25.37;;;13.30;94.80;;;;;;4592177;19;20007;-28
2022/12/09 07:47:26;;;;;;;32.70;26.00;;;13.50;94.70;;;;;;4592202;19;20021;-30
2022/12/09 07:48:59;;;;;;;36.77;28.53;;;13.60;94.60;;;;;;4590647;19;20068;-29
2022/12/09 07:50:31;;;;;;;42.33;30.23;;;13.50;94.60;;;;;;4590409;19;20026;-29
2022/12/09 07:52:02;;;;;;;39.30;29.52;;;13.50;94.70;;;;;;4591305;19;20552;-30
2022/12/09 07:53:35;;;;;;;39.00;30.30;;;13.40;94.60;;;;;;4591863;19;20007;-30
2022/12/09 07:55:07;;;;;;;39.73;30.43;;;13.40;94.70;;;;;;4591496;19;20015;-28
2022/12/09 07:56:40;;;;;;;39.17;30.30;;;13.40;94.80;;;;;;4591360;19;20014;-29
2022/12/09 07:58:11;;;;;;;43.33;33.33;;;13.30;94.70;;;;;;4592953;19;20015;-30
2022/12/09 07:59:42;;;;;;;44.30;31.08;;;13.30;95.00;;;;;;4592438;19;20494;-28
2022/12/09 08:01:20;;;;;;;44.37;33.30;;;13.30;95.00;;;;;;4593452;19;20011;-29
2022/12/09 08:02:52;;;;;;;45.40;33.17;;;13.30;94.70;;;;;;4593486;19;20011;-29
2022/12/09 08:04:23;;;;;;;44.40;32.47;;;13.30;94.70;;;;;;4594144;19;20018;-29
2022/12/09 08:05:57;;;;;;;42.30;30.97;;;13.30;94.70;;;;;;4593281;19;20461;-28
2022/12/09 08:10:10;;;;;;;44.43;32.33;;;13.30;94.70;;;;;;4593332;19;19987;-28
2022/12/09 08:11:43;;;;;;;41.37;30.63;;;13.30;94.80;;;;;;4593499;19;20026;-29
2022/12/09 08:13:15;;;;;;;40.13;29.33;;;13.20;94.80;;;;;;4593592;19;20017;-28
2022/12/09 08:14:46;;;;;;;38.70;27.83;;;13.30;94.80;;;;;;4594071;19;20022;-29
2022/12/09 08:16:19;;;;;;;37.67;27.75;;;13.40;94.70;;;;;;4593219;19;20010;-29
2022/12/09 08:17:52;;;;;;;38.03;27.27;;;13.50;94.60;;;;;;4593185;19;20010;-29